Mr. Mag — WDE7813 — position and weather

sailwx.info

Track history (hours):
 
Tides and Currents Weather Stations Pressure Air Temp Water Temp Dewpoint Dewpoint Depression Visibility Wind Speed Wind Dir Waves Ship Positions

Mr. Mag

Owner: Tandi Marine, Inc., Larose, LA. More information available from US FCC via Universal Licensing System and Coast Guard Vessel Documentation Center.

Last reported at 2016-Dec-06 07:05 UTC. Time now 2016-Dec-06 17:57 UTC.
Position N 29°32' W 092°19'.

Length 46 m; draft 2.5 m.

Type: Passenger vessel. MMSI: 367397990.

Date/timePositionNaut miles runAvg speedWind from/ knotsBaromVisibWave heightAir tempDewpointWater temp
2016-Dec-06 07:05N 29°32' W 092°19'816.0
2016-Dec-06 06:34N 29°40' W 092°15'8 8.1
2016-Dec-06 05:33N 29°47' W 092°11'0 0.0
2016-Dec-05 04:14N 29°47' W 092°11'0 0.0
2016-Dec-05 03:33N 29°47' W 092°11'0 0.0
2016-Dec-05 02:33N 29°47' W 092°11'0 0.0
2016-Dec-05 01:33N 29°47' W 092°11'1 0.7
2016-Dec-05 00:34N 29°47' W 092°11'17 2.3
2016-Dec-04 17:18N 29°32' W 092°19'1215.7
2016-Dec-04 16:33N 29°43' W 092°15'5 5.1
2016-Dec-04 15:33N 29°47' W 092°11'0 0.0
2016-Dec-04 00:09N 29°47' W 092°11'0 0.0
2016-Dec-03 23:34N 29°47' W 092°11'0 0.0
2016-Dec-03 22:34N 29°47' W 092°11'0 0.0
2016-Dec-03 21:34N 29°47' W 092°11'0 0.0
2016-Dec-03 20:33N 29°47' W 092°11'0 0.0
2016-Dec-03 19:34N 29°47' W 092°11'0 0.0
2016-Dec-03 18:33N 29°47' W 092°11'0 0.0
2016-Dec-03 17:34N 29°47' W 092°11'0 0.0
2016-Dec-03 16:33N 29°47' W 092°11'0 0.0
2016-Dec-03 15:33N 29°47' W 092°11'0 0.0
2016-Dec-03 14:34N 29°47' W 092°11'0 0.0
2016-Dec-03 13:33N 29°47' W 092°11'0 0.0
2016-Dec-03 12:34N 29°47' W 092°11'0 0.0
2016-Dec-03 11:34N 29°47' W 092°11'0 0.0
2016-Dec-03 10:34N 29°47' W 092°11'0 0.0
2016-Dec-03 09:34N 29°47' W 092°11'0 0.0
2016-Dec-03 08:34N 29°47' W 092°11'0 0.0
2016-Dec-03 07:34N 29°47' W 092°11'0 0.0
2016-Dec-03 06:34N 29°47' W 092°11'0 0.0
2016-Dec-02 22:32N 29°47' W 092°11'16 0.6
2016-Dec-01 19:32N 29°32' W 092°18'1312.9
2016-Dec-01 18:34N 29°44' W 092°14'  
2016-Nov-28 20:33N 29°47' W 092°11'0 0.0
2016-Nov-28 19:33N 29°47' W 092°11'0 0.0
2016-Nov-28 18:33N 29°47' W 092°11'0 0.0
2016-Nov-28 17:33N 29°47' W 092°11'0 0.0
2016-Nov-28 16:33N 29°47' W 092°11'0 0.0
2016-Nov-28 15:33N 29°47' W 092°11'0 0.0
2016-Nov-28 14:33N 29°47' W 092°11'0 0.0
2016-Nov-28 13:33N 29°47' W 092°11'0 0.0
2016-Nov-28 12:31N 29°47' W 092°11'0 0.0
2016-Nov-28 11:33N 29°47' W 092°11'2 2.3
2016-Nov-28 10:33N 29°47' W 092°09'2 2.1
2016-Nov-28 09:33N 29°47' W 092°11'0 0.3
2016-Nov-28 08:33N 29°47' W 092°11'1 0.4
2016-Nov-28 06:33N 29°46' W 092°11'17 0.8
2016-Nov-27 07:33N 29°30' W 092°19'10 9.9
2016-Nov-27 06:33N 29°40' W 092°15'8 8.0
2016-Nov-27 05:34N 29°47' W 092°11'0 0.4
2016-Nov-27 04:11N 29°47' W 092°11'1016.5
2016-Nov-27 03:33N 29°38' W 092°16'5 0.5
2016-Nov-26 17:32N 29°33' W 092°18'1515.4
2016-Nov-26 16:34N 29°47' W 092°11'  
Track history (hours):
 
Tides and Currents Weather Stations Pressure Air Temp Water Temp Dewpoint Dewpoint Depression Visibility Wind Speed Wind Dir Waves Ship Positions

Mr. Mag

Owner: Tandi Marine, Inc., Larose, LA. More information available from US FCC via Universal Licensing System and Coast Guard Vessel Documentation Center.

Last reported at 2016-Dec-06 07:05 UTC. Time now 2016-Dec-06 17:57 UTC.
Position N 29°32' W 092°19'.

Length 46 m; draft 2.5 m.

Type: Passenger vessel. MMSI: 367397990.

Date/timePositionNaut miles runAvg speedWind from/ knotsBaromVisibWave heightAir tempDewpointWater temp
2016-Dec-06 07:05N 29°32' W 092°19'816.0
2016-Dec-06 06:34N 29°40' W 092°15'8 8.1
2016-Dec-06 05:33N 29°47' W 092°11'0 0.0
2016-Dec-05 04:14N 29°47' W 092°11'0 0.0
2016-Dec-05 03:33N 29°47' W 092°11'0 0.0
2016-Dec-05 02:33N 29°47' W 092°11'0 0.0
2016-Dec-05 01:33N 29°47' W 092°11'1 0.7
2016-Dec-05 00:34N 29°47' W 092°11'17 2.3
2016-Dec-04 17:18N 29°32' W 092°19'1215.7
2016-Dec-04 16:33N 29°43' W 092°15'5 5.1
2016-Dec-04 15:33N 29°47' W 092°11'0 0.0
2016-Dec-04 00:09N 29°47' W 092°11'0 0.0
2016-Dec-03 23:34N 29°47' W 092°11'0 0.0
2016-Dec-03 22:34N 29°47' W 092°11'0 0.0
2016-Dec-03 21:34N 29°47' W 092°11'0 0.0
2016-Dec-03 20:33N 29°47' W 092°11'0 0.0
2016-Dec-03 19:34N 29°47' W 092°11'0 0.0
2016-Dec-03 18:33N 29°47' W 092°11'0 0.0
2016-Dec-03 17:34N 29°47' W 092°11'0 0.0
2016-Dec-03 16:33N 29°47' W 092°11'0 0.0
2016-Dec-03 15:33N 29°47' W 092°11'0 0.0
2016-Dec-03 14:34N 29°47' W 092°11'0 0.0
2016-Dec-03 13:33N 29°47' W 092°11'0 0.0
2016-Dec-03 12:34N 29°47' W 092°11'0 0.0
2016-Dec-03 11:34N 29°47' W 092°11'0 0.0
2016-Dec-03 10:34N 29°47' W 092°11'0 0.0
2016-Dec-03 09:34N 29°47' W 092°11'0 0.0
2016-Dec-03 08:34N 29°47' W 092°11'0 0.0
2016-Dec-03 07:34N 29°47' W 092°11'0 0.0
2016-Dec-03 06:34N 29°47' W 092°11'0 0.0
2016-Dec-02 22:32N 29°47' W 092°11'16 0.6
2016-Dec-01 19:32N 29°32' W 092°18'1312.9
2016-Dec-01 18:34N 29°44' W 092°14'  
2016-Nov-28 20:33N 29°47' W 092°11'0 0.0
2016-Nov-28 19:33N 29°47' W 092°11'0 0.0
2016-Nov-28 18:33N 29°47' W 092°11'0 0.0
2016-Nov-28 17:33N 29°47' W 092°11'0 0.0
2016-Nov-28 16:33N 29°47' W 092°11'0 0.0
2016-Nov-28 15:33N 29°47' W 092°11'0 0.0
2016-Nov-28 14:33N 29°47' W 092°11'0 0.0
2016-Nov-28 13:33N 29°47' W 092°11'0 0.0
2016-Nov-28 12:31N 29°47' W 092°11'0 0.0
2016-Nov-28 11:33N 29°47' W 092°11'2 2.3
2016-Nov-28 10:33N 29°47' W 092°09'2 2.1
2016-Nov-28 09:33N 29°47' W 092°11'0 0.3
2016-Nov-28 08:33N 29°47' W 092°11'1 0.4
2016-Nov-28 06:33N 29°46' W 092°11'17 0.8
2016-Nov-27 07:33N 29°30' W 092°19'10 9.9
2016-Nov-27 06:33N 29°40' W 092°15'8 8.0
2016-Nov-27 05:34N 29°47' W 092°11'0 0.4
2016-Nov-27 04:11N 29°47' W 092°11'1016.5
2016-Nov-27 03:33N 29°38' W 092°16'5 0.5
2016-Nov-26 17:32N 29°33' W 092°18'1515.4
2016-Nov-26 16:34N 29°47' W 092°11'  

Dump ship's entire track history